Terminal Aerodrome Forecast
Issued by NWS St Louis, MO

Home | Current Version | Previous Version | Text Only | Print | Product List | Glossary On
Versions: 1 2 3 4 5 6 7 8 9 10 11 12 13 14 15 16 17 18 19 20
000
FTUS43 KLSX 232300
TAFCOU
TAF
KCOU 232335Z 2400/2424 31006KT P6SM SCT030
     FM240300 32006KT P6SM BKN025
     FM240900 32010KT P6SM OVC008
     FM241500 31012G20KT P6SM OVC008
     FM242100 28014G22KT P6SM -RASN OVC008=

USA.gov is the U.S. government's official web portal to all federal, state and local government web resources and services.